• Join FlightAware (Why Join?)
  • Login
  • US Flag 
09:06PM EDT


 

Airport Tracker/Info


-or-


 

Live Flight TrackerFlight Track Log ✈ JBU1049 ✈ 07-Jul-2013 ✈ KFLL - MDSD / SDQ

Flight Track Log - Related Links

Times and Time Zones

All times are in EDT time to prevent confusion due to time zone crossing. See the JBU1049 flight status page for this flight to view local times or setup timezone preferences in your user account.

Time Position Orientation Groundspeed Altitude Reporting Facility
EDT Latitude Longitude Course Direction KTS MPH feet Rate Location/Type
10:58PM 26.0790 -80.1170 82° East 162 186 1,400  Level FlightAware
10:59PM 26.0820 -80.0920 82° East 193 222 2,000 1,320 Climbing FlightAware
10:59PM 26.0830 -80.0750 86° East 211 243 2,400 1,200 Climbing FlightAware
10:59PM 26.0820 -80.0610 95° East 234 269 2,600 2,040 Climbing FlightAware
11:00PM 26.0760 -80.0280 101° East 250 288 3,800 3,000 Climbing FlightAware
11:00PM 26.0700 -79.9950 101° East 257 296 5,200 3,480 Climbing FlightAware
11:01PM 26.0650 -79.9640 100° East 259 298 6,600 3,480 Climbing FlightAware
11:01PM 26.0620 -79.9440 99° East 257 296 7,500 3,180 Climbing FlightAware
11:01PM 26.0560 -79.9040 99° East 262 302 9,000 2,580 Climbing FlightAware
11:02PM 26.0480 -79.8520 100° East 280 322 10,500 1,620 Climbing FlightAware
11:03PM 26.0380 -79.7870 100° East 328 377 11,200 1,560 Climbing FlightAware
11:03PM 26.0270 -79.7120 99° East 342 394 12,800 2,100 Climbing FlightAware
11:04PM 26.0160 -79.6420 100° East 353 406 14,200 1,980 Climbing FlightAware
11:05PM 25.9940 -79.5590 106° East 372 428 15,700 1,860 Climbing FlightAware
11:06PM 25.9600 -79.4870 118° Southeast 381 438 16,900 1,740 Climbing FlightAware
11:06PM 25.9280 -79.4180 117° Southeast 389 448 18,100 1,860 Climbing FlightAware
11:07PM 25.8930 -79.3430 117° Southeast 390 449 19,500 1,740 Climbing FlightAware
11:08PM 25.8550 -79.2630 118° Southeast 401 461 20,600 1,500 Climbing FlightAware
11:08PM 25.8200 -79.1890 118° Southeast 407 468 21,600 1,380 Climbing FlightAware
11:09PM 25.7820 -79.1120 119° Southeast 415 478 22,500 1,320 Climbing FlightAware
11:10PM 25.7450 -79.0360 118° Southeast 422 486 23,400 1,320 Climbing FlightAware
11:10PM 25.7020 -78.9470 118° Southeast 429 494 24,400 1,260 Climbing FlightAware
11:11PM 25.6630 -78.8630 117° Southeast 434 499 25,300 1,320 Climbing FlightAware
11:12PM 25.6280 -78.7900 118° Southeast 436 502 26,200 1,080 Climbing FlightAware
11:12PM 25.5940 -78.7170 117° Southeast 446 513 26,700 840 Climbing FlightAware
11:13PM 25.5550 -78.6390 119° Southeast 455 524 27,300 1,020 Climbing FlightAware
11:14PM 25.5070 -78.5600 124° Southeast 461 531 28,100 900 Climbing FlightAware
11:14PM 25.4650 -78.4900 124° Southeast 468 539 28,500 900 Climbing FlightAware
11:15PM 25.4100 -78.4000 124° Southeast 469 540 29,300 960 Climbing FlightAware
11:16PM 25.3650 -78.3260 124° Southeast 471 542 29,900 960 Climbing FlightAware
11:17PM 25.3100 -78.2360 124° Southeast 472 543 30,700 1,200 Climbing FlightAware
11:17PM 25.2590 -78.1510 124° Southeast 468 539 31,600 1,260 Climbing FlightAware
11:18PM 25.1890 -78.0380 124° Southeast 469 540 32,700 960 Climbing FlightAware
11:19PM 25.1460 -77.9670 124° Southeast 467 537 33,200 360 Climbing FlightAware
11:19PM 25.1080 -77.9030 123° Southeast 467 537 33,200  Level FlightAware
11:20PM 25.0600 -77.8210 123° Southeast 467 537 33,200  Level FlightAware
11:21PM 25.0240 -77.7600 123° Southeast 467 537 33,200  Level FlightAware
11:21PM 24.9870 -77.6970 123° Southeast 467 537 33,200  Level FlightAware
11:22PM 24.9510 -77.6360 123° Southeast 467 537 33,200  Level FlightAware
11:23PM 24.9030 -77.5540 123° Southeast 467 537 33,200  Level FlightAware
11:23PM 24.8670 -77.4930 123° Southeast 467 537 33,200  Level FlightAware
11:24PM 24.8180 -77.4100 123° Southeast 467 537 33,200  Level FlightAware
11:25PM 24.7820 -77.3490 123° Southeast 467 537 33,200  Level FlightAware
11:26PM 24.7350 -77.2690 123° Southeast 467 537 33,200  Level FlightAware
11:26PM 24.6990 -77.2080 123° Southeast 467 537 33,200  Level FlightAware
11:27PM 24.6620 -77.1460 123° Southeast 467 537 33,200  Level FlightAware
11:28PM 24.6160 -77.0680 123° Southeast 467 537 33,200  Level FlightAware
11:28PM 24.5800 -77.0070 123° Southeast 467 537 33,200 3,120 Level FlightAware
11:29PM 24.4125 -76.7881 123° Southeast 470 541 37,000 2,280 Climbing Miami Center
11:30PM 24.3372 -76.6719 125° Southeast 470 541 37,000  Level Miami Center
11:31PM 24.2553 -76.5442 125° Southeast 470 541 37,000  Level Miami Center
11:32PM 24.1819 -76.4283 125° Southeast 470 541 37,000  Level Miami Center
11:33PM 24.1083 -76.3103 124° Southeast 470 541 37,000  Level Miami Center
11:34PM 24.0347 -76.1922 124° Southeast 475 547 37,000  Level Miami Center
11:35PM 23.9569 -76.0719 125° Southeast 475 547 37,000  Level Miami Center
11:36PM 23.8831 -75.9567 125° Southeast 467 537 37,000  Level Miami Center
11:37PM 23.8092 -75.8344 123° Southeast 474 545 37,000  Level Miami Center
11:38PM 23.7331 -75.7172 125° Southeast 474 545 37,000  Level Miami Center
11:39PM 23.6589 -75.5953 124° Southeast 479 551 37,000  Level Miami Center
11:40PM 23.5806 -75.4736 125° Southeast 484 557 37,000  Level Miami Center
11:41PM 23.5000 -75.3544 126° Southeast 484 557 37,000  Level Miami Center
11:42PM 23.4214 -75.2353 126° Southeast 484 557 37,000  Level Miami Center
11:43PM 23.3447 -75.1164 125° Southeast 484 557 37,000  Level Miami Center
11:44PM 23.2661 -74.9956 125° Southeast 484 557 37,000  Level Miami Center
11:45PM 23.1958 -74.8881 125° Southeast 489 563 37,000  Level Miami Center
11:46PM 23.1169 -74.7694 126° Southeast 489 563 37,000  Level Miami Center
11:47PM 23.0358 -74.6489 126° Southeast 489 563 37,000  Level Miami Center
11:48PM 22.9586 -74.5283 125° Southeast 489 563 37,000  Level Miami Center
11:49PM 22.8772 -74.4058 126° Southeast 489 563 37,000  Level Miami Center
11:50PM 22.8022 -74.2903 125° Southeast 484 557 37,100  Climbing Miami Center
11:51PM 22.7208 -74.1681 126° Southeast 489 563 37,000 -60 Descending Miami Center
11:52PM 22.6414 -74.0525 127° Southeast 489 563 37,000 -60 Level Miami Center
11:53PM 22.5639 -73.9328 125° Southeast 489 563 36,900  Descending Miami Center
11:54PM 22.4864 -73.8156 126° Southeast 489 563 37,000  Climbing Miami Center
11:55PM 22.4025 -73.6961 127° Southeast 489 563 37,000  Level Miami Center
11:56PM 22.3228 -73.5744 125° Southeast 494 568 37,100  Climbing Miami Center
11:57PM 22.2383 -73.4467 126° Southeast 488 562 37,000 -60 Descending Miami Center
11:58PM 22.1606 -73.3297 126° Southeast 482 555 37,000  Level Miami Center
11:59PM 22.0783 -73.2089 126° Southeast 488 562 37,000  Level Miami Center
12:00AM 21.9961 -73.0903 127° Southeast 493 567 37,000  Level Miami Center
12:01AM 21.9158 -72.9694 126° Southeast 493 567 37,000  Level Miami Center
12:02AM 21.8356 -72.8511 126° Southeast 493 567 37,000  Level Miami Center
12:03AM 21.7553 -72.7328 126° Southeast 493 567 37,000  Level Miami Center
12:04AM 21.6769 -72.6169 126° Southeast 487 560 37,000  Level Miami Center
12:05AM 21.5964 -72.4989 126° Southeast 487 560 37,000  Level Miami Center
12:06AM 21.5158 -72.3833 127° Southeast 487 560 37,000  Level Miami Center
12:07AM 21.4372 -72.2658 126° Southeast 487 560 37,000  Level Miami Center
12:08AM 21.3564 -72.1503 127° Southeast 487 560 37,000  Level Miami Center
12:09AM 21.2778 -72.0331 126° Southeast 487 560 37,000  Level Miami Center
12:10AM 21.1969 -71.9181 127° Southeast 487 560 37,000  Level Miami Center
12:11AM 21.1158 -71.8008 127° Southeast 487 560 37,000  Level Miami Center
12:12AM 21.0350 -71.6839 127° Southeast 487 560 37,000  Level Miami Center
12:13AM 20.9336 -71.5903 139° Southeast 482 555 37,000  Level Miami Center
12:14AM 20.8347 -71.5031 140° Southeast 471 542 37,000  Level Miami Center
12:15AM 20.7358 -71.4139 140° Southeast 471 542 37,000  Level Miami Center
12:16AM 20.6367 -71.3247 140° Southeast 466 536 37,000  Level Miami Center
12:17AM 20.5378 -71.2381 141° Southeast 466 536 37,000  Level Miami Center
12:18AM 20.4364 -71.1492 141° Southeast 466 536 37,000  Level Miami Center
12:20AM 20.2843 -71.0182 138° Southeast  Level FlightAware Approximate
12:27AM 19.6606 -70.4427 131° Southeast  Level FlightAware Approximate
12:28AM 19.5825 -70.3489 131° Southeast  Level FlightAware Approximate
12:29AM 19.5043 -70.2551 131° Southeast  Level FlightAware Approximate
12:30AM 19.4307 -70.1574 128° Southeast  Level FlightAware Approximate
12:31AM 19.3573 -70.0594 128° Southeast  Level FlightAware Approximate
12:32AM 19.2838 -69.9616 128° Southeast  Level FlightAware Approximate
12:33AM 19.1891 -69.8967 164° South  Level FlightAware Approximate
12:34AM 19.0756 -69.8627 164° South  Level FlightAware Approximate
12:35AM 18.9622 -69.8281 164° South  Level FlightAware Approximate
12:36AM 18.8489 -69.7933 164° South  Level FlightAware Approximate
12:37AM 18.7362 -69.7565 162° South  Level FlightAware Approximate
12:38AM 18.6245 -69.7165 159° South  Level FlightAware Approximate
12:39AM 18.5107 -69.6855 169° South  Level FlightAware Approximate
12:40AM 18.4297 -69.6689 159° South  Level Estimated
12:41AM 18.4297 -69.6689 159° South  Level Estimated
12:42AM 18.4297 -69.6689 159° South  Level Estimated
12:43AM 18.4297 -69.6689 159° South  Level Estimated
12:44AM 18.4297 -69.6689 159° South  Level Estimated
12:45AM 18.4297 -69.6689 159° South  Level Estimated
12:46AM 18.4297 -69.6689 159° South  Level Estimated
12:47AM 18.4297 -69.6689 159° South  Level Estimated
12:48AM 18.4297 -69.6689 159° South  Level Estimated
12:49AM 18.4297 -69.6689 159° South  Level Estimated
12:50AM 18.4297 -69.6689 159° South  Level Estimated
12:51AM 18.4297 -69.6689 159° South  Level Estimated
12:52AM 18.4297 -69.6689 159° South  Level Estimated
12:53AM 18.4297 -69.6689 159° South  Level Estimated
12:54AM 18.4297 -69.6689 159° South  Level Estimated
12:55AM 18.4297 -69.6689 159° South  Level Estimated
12:56AM 18.4297 -69.6689 159° South  Level Estimated